<?xml version="1.0" encoding="UTF-8" standalone="no" ?>
<gpx xmlns="http://www.topografix.com/GPX/1/1" xmlns:xsi="http://www.w3.org/2001/XMLSchema-instance" xsi:schemaLocation="http://www.topografix.com/GPX/1/1 http://www.topografix.com/GPX/1/1/gpx.xsd" version="1.1" creator="VisuGPX - https://www.visugpx.com">
  <metadata>
    <name>Boucle des grands - 15 Janvier 2014</name>
    <desc><![CDATA[Boucle des grands]]></desc>
  </metadata>
  <trk>
    <name><![CDATA[15-JAN-14 boucle des grands]]></name>
    <trkseg>
      <trkpt lat="43.01941" lon="-0.09578">
        <ele>418.31</ele>
        <time>2014-01-15T15:09:00Z</time>
      </trkpt>
      <trkpt lat="43.01941" lon="-0.09578">
        <ele>418.31</ele>
        <time>2014-01-15T15:09:01Z</time>
      </trkpt>
      <trkpt lat="43.01941" lon="-0.09578">
        <ele>420.23</ele>
        <time>2014-01-15T15:09:20Z</time>
      </trkpt>
      <trkpt lat="43.01941" lon="-0.0958">
        <ele>420.71</ele>
        <time>2014-01-15T15:09:40Z</time>
      </trkpt>
      <trkpt lat="43.01942" lon="-0.09579">
        <ele>420.23</ele>
        <time>2014-01-15T15:09:57Z</time>
      </trkpt>
      <trkpt lat="43.01942" lon="-0.09578">
        <ele>420.23</ele>
        <time>2014-01-15T15:10:18Z</time>
      </trkpt>
      <trkpt lat="43.01942" lon="-0.09577">
        <ele>420.23</ele>
        <time>2014-01-15T15:10:45Z</time>
      </trkpt>
      <trkpt lat="43.01944" lon="-0.09578">
        <ele>420.71</ele>
        <time>2014-01-15T15:11:11Z</time>
      </trkpt>
      <trkpt lat="43.01948" lon="-0.09571">
        <ele>420.71</ele>
        <time>2014-01-15T15:11:16Z</time>
      </trkpt>
      <trkpt lat="43.0194" lon="-0.09561">
        <ele>420.71</ele>
        <time>2014-01-15T15:11:21Z</time>
      </trkpt>
      <trkpt lat="43.01931" lon="-0.09561">
        <ele>421.68</ele>
        <time>2014-01-15T15:11:26Z</time>
      </trkpt>
      <trkpt lat="43.0188" lon="-0.09612">
        <ele>421.19</ele>
        <time>2014-01-15T15:11:42Z</time>
      </trkpt>
      <trkpt lat="43.01813" lon="-0.09657">
        <ele>422.16</ele>
        <time>2014-01-15T15:11:57Z</time>
      </trkpt>
      <trkpt lat="43.01793" lon="-0.09666">
        <ele>426</ele>
        <time>2014-01-15T15:12:01Z</time>
      </trkpt>
      <trkpt lat="43.01788" lon="-0.09668">
        <ele>422.64</ele>
        <time>2014-01-15T15:12:02Z</time>
      </trkpt>
      <trkpt lat="43.01708" lon="-0.09692">
        <ele>422.64</ele>
        <time>2014-01-15T15:12:17Z</time>
      </trkpt>
      <trkpt lat="43.01616" lon="-0.09716">
        <ele>423.6</ele>
        <time>2014-01-15T15:12:34Z</time>
      </trkpt>
      <trkpt lat="43.01523" lon="-0.09742">
        <ele>424.56</ele>
        <time>2014-01-15T15:12:51Z</time>
      </trkpt>
      <trkpt lat="43.01424" lon="-0.09767">
        <ele>425.52</ele>
        <time>2014-01-15T15:13:09Z</time>
      </trkpt>
      <trkpt lat="43.01337" lon="-0.09778">
        <ele>426.48</ele>
        <time>2014-01-15T15:13:25Z</time>
      </trkpt>
      <trkpt lat="43.01251" lon="-0.09783">
        <ele>426</ele>
        <time>2014-01-15T15:13:40Z</time>
      </trkpt>
      <trkpt lat="43.01161" lon="-0.09789">
        <ele>426</ele>
        <time>2014-01-15T15:13:55Z</time>
      </trkpt>
      <trkpt lat="43.0111" lon="-0.09786">
        <ele>427.44</ele>
        <time>2014-01-15T15:14:06Z</time>
      </trkpt>
      <trkpt lat="43.0105" lon="-0.09771">
        <ele>429.85</ele>
        <time>2014-01-15T15:14:20Z</time>
      </trkpt>
      <trkpt lat="43.00984" lon="-0.09733">
        <ele>432.25</ele>
        <time>2014-01-15T15:14:36Z</time>
      </trkpt>
      <trkpt lat="43.00972" lon="-0.09724">
        <ele>432.25</ele>
        <time>2014-01-15T15:14:39Z</time>
      </trkpt>
      <trkpt lat="43.00956" lon="-0.09711">
        <ele>433.21</ele>
        <time>2014-01-15T15:14:43Z</time>
      </trkpt>
      <trkpt lat="43.00898" lon="-0.09648">
        <ele>433.69</ele>
        <time>2014-01-15T15:14:58Z</time>
      </trkpt>
      <trkpt lat="43.00835" lon="-0.09576">
        <ele>433.69</ele>
        <time>2014-01-15T15:15:13Z</time>
      </trkpt>
      <trkpt lat="43.00786" lon="-0.09518">
        <ele>433.69</ele>
        <time>2014-01-15T15:15:25Z</time>
      </trkpt>
      <trkpt lat="43.00766" lon="-0.09493">
        <ele>434.17</ele>
        <time>2014-01-15T15:15:31Z</time>
      </trkpt>
      <trkpt lat="43.00753" lon="-0.09495">
        <ele>434.65</ele>
        <time>2014-01-15T15:15:35Z</time>
      </trkpt>
      <trkpt lat="43.00749" lon="-0.09503">
        <ele>434.17</ele>
        <time>2014-01-15T15:15:37Z</time>
      </trkpt>
      <trkpt lat="43.00725" lon="-0.09514">
        <ele>434.17</ele>
        <time>2014-01-15T15:15:43Z</time>
      </trkpt>
      <trkpt lat="43.00714" lon="-0.09537">
        <ele>435.13</ele>
        <time>2014-01-15T15:15:52Z</time>
      </trkpt>
      <trkpt lat="43.00714" lon="-0.09539">
        <ele>435.61</ele>
        <time>2014-01-15T15:16:15Z</time>
      </trkpt>
      <trkpt lat="43.00714" lon="-0.0954">
        <ele>435.61</ele>
        <time>2014-01-15T15:16:39Z</time>
      </trkpt>
      <trkpt lat="43.00712" lon="-0.09541">
        <ele>435.13</ele>
        <time>2014-01-15T15:17:10Z</time>
      </trkpt>
      <trkpt lat="43.00712" lon="-0.09541">
        <ele>435.13</ele>
        <time>2014-01-15T15:17:45Z</time>
      </trkpt>
      <trkpt lat="43.00712" lon="-0.09541">
        <ele>435.61</ele>
        <time>2014-01-15T15:18:05Z</time>
      </trkpt>
      <trkpt lat="43.00713" lon="-0.0954">
        <ele>435.61</ele>
        <time>2014-01-15T15:18:32Z</time>
      </trkpt>
      <trkpt lat="43.00714" lon="-0.09538">
        <ele>435.13</ele>
        <time>2014-01-15T15:19:00Z</time>
      </trkpt>
      <trkpt lat="43.00715" lon="-0.09536">
        <ele>435.13</ele>
        <time>2014-01-15T15:19:26Z</time>
      </trkpt>
      <trkpt lat="43.00709" lon="-0.09575">
        <ele>436.1</ele>
        <time>2014-01-15T15:19:37Z</time>
      </trkpt>
      <trkpt lat="43.00705" lon="-0.09635">
        <ele>437.54</ele>
        <time>2014-01-15T15:19:49Z</time>
      </trkpt>
      <trkpt lat="43.007" lon="-0.09703">
        <ele>438.5</ele>
        <time>2014-01-15T15:20:03Z</time>
      </trkpt>
      <trkpt lat="43.00697" lon="-0.0975">
        <ele>439.46</ele>
        <time>2014-01-15T15:20:12Z</time>
      </trkpt>
      <trkpt lat="43.00736" lon="-0.09769">
        <ele>438.5</ele>
        <time>2014-01-15T15:20:23Z</time>
      </trkpt>
      <trkpt lat="43.00803" lon="-0.09794">
        <ele>437.06</ele>
        <time>2014-01-15T15:20:37Z</time>
      </trkpt>
      <trkpt lat="43.00866" lon="-0.0982">
        <ele>436.1</ele>
        <time>2014-01-15T15:20:50Z</time>
      </trkpt>
      <trkpt lat="43.00873" lon="-0.09831">
        <ele>435.61</ele>
        <time>2014-01-15T15:20:55Z</time>
      </trkpt>
      <trkpt lat="43.00877" lon="-0.0984">
        <ele>436.58</ele>
        <time>2014-01-15T15:20:58Z</time>
      </trkpt>
      <trkpt lat="43.00888" lon="-0.0985">
        <ele>438.5</ele>
        <time>2014-01-15T15:21:07Z</time>
      </trkpt>
      <trkpt lat="43.00876" lon="-0.09851">
        <ele>440.42</ele>
        <time>2014-01-15T15:21:13Z</time>
      </trkpt>
      <trkpt lat="43.00869" lon="-0.09852">
        <ele>441.86</ele>
        <time>2014-01-15T15:21:17Z</time>
      </trkpt>
      <trkpt lat="43.00878" lon="-0.09864">
        <ele>443.79</ele>
        <time>2014-01-15T15:21:26Z</time>
      </trkpt>
      <trkpt lat="43.00874" lon="-0.09869">
        <ele>445.23</ele>
        <time>2014-01-15T15:21:33Z</time>
      </trkpt>
      <trkpt lat="43.00874" lon="-0.09869">
        <ele>446.19</ele>
        <time>2014-01-15T15:21:42Z</time>
      </trkpt>
      <trkpt lat="43.00875" lon="-0.09865">
        <ele>444.75</ele>
        <time>2014-01-15T15:21:45Z</time>
      </trkpt>
      <trkpt lat="43.00878" lon="-0.09863">
        <ele>443.79</ele>
        <time>2014-01-15T15:21:56Z</time>
      </trkpt>
      <trkpt lat="43.00878" lon="-0.09863">
        <ele>443.31</ele>
        <time>2014-01-15T15:22:01Z</time>
      </trkpt>
      <trkpt lat="43.00876" lon="-0.09864">
        <ele>443.79</ele>
        <time>2014-01-15T15:22:03Z</time>
      </trkpt>
      <trkpt lat="43.00872" lon="-0.09864">
        <ele>445.23</ele>
        <time>2014-01-15T15:22:08Z</time>
      </trkpt>
      <trkpt lat="43.00878" lon="-0.09864">
        <ele>446.67</ele>
        <time>2014-01-15T15:22:13Z</time>
      </trkpt>
      <trkpt lat="43.0088" lon="-0.09866">
        <ele>447.15</ele>
        <time>2014-01-15T15:22:24Z</time>
      </trkpt>
      <trkpt lat="43.00881" lon="-0.09867">
        <ele>446.67</ele>
        <time>2014-01-15T15:22:40Z</time>
      </trkpt>
      <trkpt lat="43.00881" lon="-0.09868">
        <ele>447.15</ele>
        <time>2014-01-15T15:22:49Z</time>
      </trkpt>
      <trkpt lat="43.00867" lon="-0.09874">
        <ele>449.07</ele>
        <time>2014-01-15T15:23:00Z</time>
      </trkpt>
      <trkpt lat="43.00863" lon="-0.09874">
        <ele>449.55</ele>
        <time>2014-01-15T15:23:02Z</time>
      </trkpt>
      <trkpt lat="43.00832" lon="-0.09882">
        <ele>451</ele>
        <time>2014-01-15T15:23:15Z</time>
      </trkpt>
      <trkpt lat="43.00806" lon="-0.09913">
        <ele>452.44</ele>
        <time>2014-01-15T15:23:28Z</time>
      </trkpt>
      <trkpt lat="43.00792" lon="-0.09943">
        <ele>453.4</ele>
        <time>2014-01-15T15:23:39Z</time>
      </trkpt>
      <trkpt lat="43.00803" lon="-0.09961">
        <ele>454.84</ele>
        <time>2014-01-15T15:23:48Z</time>
      </trkpt>
      <trkpt lat="43.00805" lon="-0.09963">
        <ele>454.84</ele>
        <time>2014-01-15T15:23:50Z</time>
      </trkpt>
      <trkpt lat="43.00805" lon="-0.09966">
        <ele>454.84</ele>
        <time>2014-01-15T15:24:07Z</time>
      </trkpt>
      <trkpt lat="43.00804" lon="-0.09967">
        <ele>454.84</ele>
        <time>2014-01-15T15:24:34Z</time>
      </trkpt>
      <trkpt lat="43.00804" lon="-0.0997">
        <ele>455.32</ele>
        <time>2014-01-15T15:25:06Z</time>
      </trkpt>
      <trkpt lat="43.00804" lon="-0.09971">
        <ele>455.32</ele>
        <time>2014-01-15T15:25:24Z</time>
      </trkpt>
      <trkpt lat="43.00816" lon="-0.09963">
        <ele>455.32</ele>
        <time>2014-01-15T15:25:31Z</time>
      </trkpt>
      <trkpt lat="43.00828" lon="-0.09962">
        <ele>455.8</ele>
        <time>2014-01-15T15:25:35Z</time>
      </trkpt>
      <trkpt lat="43.00834" lon="-0.09976">
        <ele>455.8</ele>
        <time>2014-01-15T15:25:40Z</time>
      </trkpt>
      <trkpt lat="43.00854" lon="-0.10025">
        <ele>457.24</ele>
        <time>2014-01-15T15:25:54Z</time>
      </trkpt>
      <trkpt lat="43.00856" lon="-0.1003">
        <ele>457.24</ele>
        <time>2014-01-15T15:25:55Z</time>
      </trkpt>
      <trkpt lat="43.00846" lon="-0.10055">
        <ele>457.72</ele>
        <time>2014-01-15T15:26:03Z</time>
      </trkpt>
      <trkpt lat="43.00854" lon="-0.1007">
        <ele>458.21</ele>
        <time>2014-01-15T15:26:08Z</time>
      </trkpt>
      <trkpt lat="43.00867" lon="-0.10085">
        <ele>457.72</ele>
        <time>2014-01-15T15:26:14Z</time>
      </trkpt>
      <trkpt lat="43.00861" lon="-0.10095">
        <ele>457.72</ele>
        <time>2014-01-15T15:26:18Z</time>
      </trkpt>
      <trkpt lat="43.00838" lon="-0.10099">
        <ele>458.21</ele>
        <time>2014-01-15T15:26:24Z</time>
      </trkpt>
      <trkpt lat="43.00791" lon="-0.10104">
        <ele>458.21</ele>
        <time>2014-01-15T15:26:34Z</time>
      </trkpt>
      <trkpt lat="43.0074" lon="-0.1011">
        <ele>459.65</ele>
        <time>2014-01-15T15:26:45Z</time>
      </trkpt>
      <trkpt lat="43.00717" lon="-0.10117">
        <ele>459.65</ele>
        <time>2014-01-15T15:26:51Z</time>
      </trkpt>
      <trkpt lat="43.007" lon="-0.10119">
        <ele>459.65</ele>
        <time>2014-01-15T15:26:57Z</time>
      </trkpt>
      <trkpt lat="43.00681" lon="-0.10124">
        <ele>459.65</ele>
        <time>2014-01-15T15:27:02Z</time>
      </trkpt>
      <trkpt lat="43.0066" lon="-0.10125">
        <ele>459.65</ele>
        <time>2014-01-15T15:27:07Z</time>
      </trkpt>
      <trkpt lat="43.00598" lon="-0.10116">
        <ele>460.61</ele>
        <time>2014-01-15T15:27:22Z</time>
      </trkpt>
      <trkpt lat="43.00595" lon="-0.10113">
        <ele>460.61</ele>
        <time>2014-01-15T15:27:23Z</time>
      </trkpt>
      <trkpt lat="43.00571" lon="-0.10111">
        <ele>461.09</ele>
        <time>2014-01-15T15:27:31Z</time>
      </trkpt>
      <trkpt lat="43.00572" lon="-0.10123">
        <ele>461.57</ele>
        <time>2014-01-15T15:27:33Z</time>
      </trkpt>
      <trkpt lat="43.00558" lon="-0.10143">
        <ele>463.97</ele>
        <time>2014-01-15T15:27:40Z</time>
      </trkpt>
      <trkpt lat="43.00546" lon="-0.10155">
        <ele>464.45</ele>
        <time>2014-01-15T15:27:47Z</time>
      </trkpt>
      <trkpt lat="43.00549" lon="-0.10168">
        <ele>465.9</ele>
        <time>2014-01-15T15:27:55Z</time>
      </trkpt>
      <trkpt lat="43.00551" lon="-0.10168">
        <ele>465.9</ele>
        <time>2014-01-15T15:27:56Z</time>
      </trkpt>
      <trkpt lat="43.00575" lon="-0.10172">
        <ele>469.26</ele>
        <time>2014-01-15T15:28:07Z</time>
      </trkpt>
      <trkpt lat="43.00579" lon="-0.10172">
        <ele>469.74</ele>
        <time>2014-01-15T15:28:09Z</time>
      </trkpt>
      <trkpt lat="43.00585" lon="-0.10174">
        <ele>471.18</ele>
        <time>2014-01-15T15:28:20Z</time>
      </trkpt>
      <trkpt lat="43.00585" lon="-0.10174">
        <ele>470.7</ele>
        <time>2014-01-15T15:28:22Z</time>
      </trkpt>
      <trkpt lat="43.00604" lon="-0.10183">
        <ele>473.59</ele>
        <time>2014-01-15T15:28:33Z</time>
      </trkpt>
      <trkpt lat="43.00605" lon="-0.10183">
        <ele>474.07</ele>
        <time>2014-01-15T15:28:34Z</time>
      </trkpt>
      <trkpt lat="43.0062" lon="-0.10198">
        <ele>476.95</ele>
        <time>2014-01-15T15:28:44Z</time>
      </trkpt>
      <trkpt lat="43.00635" lon="-0.10207">
        <ele>479.35</ele>
        <time>2014-01-15T15:28:53Z</time>
      </trkpt>
      <trkpt lat="43.00641" lon="-0.10215">
        <ele>480.8</ele>
        <time>2014-01-15T15:28:59Z</time>
      </trkpt>
      <trkpt lat="43.00644" lon="-0.10227">
        <ele>482.24</ele>
        <time>2014-01-15T15:29:04Z</time>
      </trkpt>
      <trkpt lat="43.00658" lon="-0.10246">
        <ele>485.12</ele>
        <time>2014-01-15T15:29:15Z</time>
      </trkpt>
      <trkpt lat="43.00661" lon="-0.10263">
        <ele>485.12</ele>
        <time>2014-01-15T15:29:23Z</time>
      </trkpt>
      <trkpt lat="43.0066" lon="-0.10267">
        <ele>485.12</ele>
        <time>2014-01-15T15:29:25Z</time>
      </trkpt>
      <trkpt lat="43.00663" lon="-0.10278">
        <ele>484.64</ele>
        <time>2014-01-15T15:29:30Z</time>
      </trkpt>
      <trkpt lat="43.00661" lon="-0.1028">
        <ele>485.6</ele>
        <time>2014-01-15T15:29:32Z</time>
      </trkpt>
      <trkpt lat="43.00659" lon="-0.10274">
        <ele>485.12</ele>
        <time>2014-01-15T15:29:41Z</time>
      </trkpt>
      <trkpt lat="43.0066" lon="-0.10275">
        <ele>485.12</ele>
        <time>2014-01-15T15:29:56Z</time>
      </trkpt>
      <trkpt lat="43.00659" lon="-0.10274">
        <ele>485.12</ele>
        <time>2014-01-15T15:30:21Z</time>
      </trkpt>
      <trkpt lat="43.0066" lon="-0.10274">
        <ele>485.12</ele>
        <time>2014-01-15T15:30:52Z</time>
      </trkpt>
      <trkpt lat="43.0066" lon="-0.10274">
        <ele>484.16</ele>
        <time>2014-01-15T15:31:10Z</time>
      </trkpt>
      <trkpt lat="43.0066" lon="-0.10274">
        <ele>484.16</ele>
        <time>2014-01-15T15:31:41Z</time>
      </trkpt>
      <trkpt lat="43.00662" lon="-0.10274">
        <ele>484.16</ele>
        <time>2014-01-15T15:32:16Z</time>
      </trkpt>
      <trkpt lat="43.00661" lon="-0.10273">
        <ele>484.16</ele>
        <time>2014-01-15T15:32:46Z</time>
      </trkpt>
      <trkpt lat="43.00661" lon="-0.10275">
        <ele>484.16</ele>
        <time>2014-01-15T15:33:16Z</time>
      </trkpt>
      <trkpt lat="43.0066" lon="-0.10277">
        <ele>483.68</ele>
        <time>2014-01-15T15:33:55Z</time>
      </trkpt>
      <trkpt lat="43.0066" lon="-0.10276">
        <ele>484.16</ele>
        <time>2014-01-15T15:34:26Z</time>
      </trkpt>
      <trkpt lat="43.0066" lon="-0.10276">
        <ele>484.64</ele>
        <time>2014-01-15T15:34:55Z</time>
      </trkpt>
      <trkpt lat="43.0066" lon="-0.10275">
        <ele>485.12</ele>
        <time>2014-01-15T15:35:23Z</time>
      </trkpt>
      <trkpt lat="43.0066" lon="-0.10274">
        <ele>486.56</ele>
        <time>2014-01-15T15:35:48Z</time>
      </trkpt>
      <trkpt lat="43.00661" lon="-0.10273">
        <ele>486.08</ele>
        <time>2014-01-15T15:35:53Z</time>
      </trkpt>
      <trkpt lat="43.00673" lon="-0.10269">
        <ele>486.08</ele>
        <time>2014-01-15T15:36:00Z</time>
      </trkpt>
      <trkpt lat="43.0071" lon="-0.10259">
        <ele>485.12</ele>
        <time>2014-01-15T15:36:12Z</time>
      </trkpt>
      <trkpt lat="43.0073" lon="-0.10255">
        <ele>484.64</ele>
        <time>2014-01-15T15:36:17Z</time>
      </trkpt>
      <trkpt lat="43.00758" lon="-0.10228">
        <ele>482.72</ele>
        <time>2014-01-15T15:36:25Z</time>
      </trkpt>
      <trkpt lat="43.00767" lon="-0.10221">
        <ele>481.28</ele>
        <time>2014-01-15T15:36:27Z</time>
      </trkpt>
      <trkpt lat="43.00786" lon="-0.10205">
        <ele>479.84</ele>
        <time>2014-01-15T15:36:31Z</time>
      </trkpt>
      <trkpt lat="43.00794" lon="-0.10198">
        <ele>479.84</ele>
        <time>2014-01-15T15:36:33Z</time>
      </trkpt>
      <trkpt lat="43.00809" lon="-0.10192">
        <ele>478.87</ele>
        <time>2014-01-15T15:36:36Z</time>
      </trkpt>
      <trkpt lat="43.00827" lon="-0.10185">
        <ele>477.43</ele>
        <time>2014-01-15T15:36:40Z</time>
      </trkpt>
      <trkpt lat="43.00848" lon="-0.10171">
        <ele>474.07</ele>
        <time>2014-01-15T15:36:44Z</time>
      </trkpt>
      <trkpt lat="43.00868" lon="-0.10159">
        <ele>473.59</ele>
        <time>2014-01-15T15:36:47Z</time>
      </trkpt>
      <trkpt lat="43.00889" lon="-0.10139">
        <ele>470.7</ele>
        <time>2014-01-15T15:36:52Z</time>
      </trkpt>
      <trkpt lat="43.00894" lon="-0.10132">
        <ele>470.22</ele>
        <time>2014-01-15T15:36:53Z</time>
      </trkpt>
      <trkpt lat="43.00931" lon="-0.10108">
        <ele>467.82</ele>
        <time>2014-01-15T15:37:02Z</time>
      </trkpt>
      <trkpt lat="43.00931" lon="-0.10109">
        <ele>467.34</ele>
        <time>2014-01-15T15:37:04Z</time>
      </trkpt>
      <trkpt lat="43.00924" lon="-0.10111">
        <ele>466.86</ele>
        <time>2014-01-15T15:37:14Z</time>
      </trkpt>
      <trkpt lat="43.00925" lon="-0.10112">
        <ele>467.34</ele>
        <time>2014-01-15T15:37:34Z</time>
      </trkpt>
      <trkpt lat="43.00927" lon="-0.10116">
        <ele>466.86</ele>
        <time>2014-01-15T15:37:48Z</time>
      </trkpt>
      <trkpt lat="43.00938" lon="-0.10117">
        <ele>468.78</ele>
        <time>2014-01-15T15:37:57Z</time>
      </trkpt>
      <trkpt lat="43.00957" lon="-0.10126">
        <ele>473.11</ele>
        <time>2014-01-15T15:38:06Z</time>
      </trkpt>
      <trkpt lat="43.00976" lon="-0.10124">
        <ele>472.63</ele>
        <time>2014-01-15T15:38:12Z</time>
      </trkpt>
      <trkpt lat="43.01014" lon="-0.10128">
        <ele>471.18</ele>
        <time>2014-01-15T15:38:24Z</time>
      </trkpt>
      <trkpt lat="43.01045" lon="-0.1014">
        <ele>472.14</ele>
        <time>2014-01-15T15:38:34Z</time>
      </trkpt>
      <trkpt lat="43.01074" lon="-0.10131">
        <ele>470.7</ele>
        <time>2014-01-15T15:38:42Z</time>
      </trkpt>
      <trkpt lat="43.01107" lon="-0.10144">
        <ele>471.18</ele>
        <time>2014-01-15T15:38:52Z</time>
      </trkpt>
      <trkpt lat="43.01129" lon="-0.10151">
        <ele>473.11</ele>
        <time>2014-01-15T15:39:00Z</time>
      </trkpt>
      <trkpt lat="43.01131" lon="-0.10151">
        <ele>473.11</ele>
        <time>2014-01-15T15:39:01Z</time>
      </trkpt>
      <trkpt lat="43.01136" lon="-0.1015">
        <ele>474.07</ele>
        <time>2014-01-15T15:39:04Z</time>
      </trkpt>
      <trkpt lat="43.01143" lon="-0.10151">
        <ele>475.99</ele>
        <time>2014-01-15T15:39:09Z</time>
      </trkpt>
      <trkpt lat="43.01158" lon="-0.10153">
        <ele>478.39</ele>
        <time>2014-01-15T15:39:19Z</time>
      </trkpt>
      <trkpt lat="43.01164" lon="-0.10153">
        <ele>479.84</ele>
        <time>2014-01-15T15:39:25Z</time>
      </trkpt>
      <trkpt lat="43.01172" lon="-0.10153">
        <ele>480.32</ele>
        <time>2014-01-15T15:39:32Z</time>
      </trkpt>
      <trkpt lat="43.0118" lon="-0.1015">
        <ele>480.8</ele>
        <time>2014-01-15T15:39:40Z</time>
      </trkpt>
      <trkpt lat="43.01189" lon="-0.1014">
        <ele>483.2</ele>
        <time>2014-01-15T15:39:50Z</time>
      </trkpt>
      <trkpt lat="43.01191" lon="-0.10138">
        <ele>483.2</ele>
        <time>2014-01-15T15:39:51Z</time>
      </trkpt>
      <trkpt lat="43.01205" lon="-0.10135">
        <ele>486.08</ele>
        <time>2014-01-15T15:40:01Z</time>
      </trkpt>
      <trkpt lat="43.01217" lon="-0.10133">
        <ele>488.01</ele>
        <time>2014-01-15T15:40:08Z</time>
      </trkpt>
      <trkpt lat="43.01228" lon="-0.10132">
        <ele>489.45</ele>
        <time>2014-01-15T15:40:15Z</time>
      </trkpt>
      <trkpt lat="43.01236" lon="-0.10128">
        <ele>490.89</ele>
        <time>2014-01-15T15:40:20Z</time>
      </trkpt>
      <trkpt lat="43.01251" lon="-0.10123">
        <ele>493.29</ele>
        <time>2014-01-15T15:40:31Z</time>
      </trkpt>
      <trkpt lat="43.01264" lon="-0.10119">
        <ele>493.29</ele>
        <time>2014-01-15T15:40:44Z</time>
      </trkpt>
      <trkpt lat="43.01273" lon="-0.10115">
        <ele>494.74</ele>
        <time>2014-01-15T15:40:52Z</time>
      </trkpt>
      <trkpt lat="43.0128" lon="-0.10112">
        <ele>495.7</ele>
        <time>2014-01-15T15:40:56Z</time>
      </trkpt>
      <trkpt lat="43.01288" lon="-0.10111">
        <ele>497.62</ele>
        <time>2014-01-15T15:41:02Z</time>
      </trkpt>
      <trkpt lat="43.0129" lon="-0.10111">
        <ele>498.1</ele>
        <time>2014-01-15T15:41:03Z</time>
      </trkpt>
      <trkpt lat="43.01299" lon="-0.10115">
        <ele>499.06</ele>
        <time>2014-01-15T15:41:08Z</time>
      </trkpt>
      <trkpt lat="43.01306" lon="-0.10118">
        <ele>499.54</ele>
        <time>2014-01-15T15:41:13Z</time>
      </trkpt>
      <trkpt lat="43.01325" lon="-0.10122">
        <ele>499.54</ele>
        <time>2014-01-15T15:41:24Z</time>
      </trkpt>
      <trkpt lat="43.01327" lon="-0.10123">
        <ele>499.54</ele>
        <time>2014-01-15T15:41:26Z</time>
      </trkpt>
      <trkpt lat="43.01355" lon="-0.10127">
        <ele>501.46</ele>
        <time>2014-01-15T15:41:40Z</time>
      </trkpt>
      <trkpt lat="43.01368" lon="-0.1013">
        <ele>502.43</ele>
        <time>2014-01-15T15:41:45Z</time>
      </trkpt>
      <trkpt lat="43.0138" lon="-0.10134">
        <ele>501.46</ele>
        <time>2014-01-15T15:41:48Z</time>
      </trkpt>
      <trkpt lat="43.01404" lon="-0.10131">
        <ele>499.54</ele>
        <time>2014-01-15T15:41:52Z</time>
      </trkpt>
      <trkpt lat="43.01415" lon="-0.10126">
        <ele>498.58</ele>
        <time>2014-01-15T15:41:54Z</time>
      </trkpt>
      <trkpt lat="43.0143" lon="-0.10117">
        <ele>499.06</ele>
        <time>2014-01-15T15:41:57Z</time>
      </trkpt>
      <trkpt lat="43.0145" lon="-0.101">
        <ele>500.5</ele>
        <time>2014-01-15T15:42:05Z</time>
      </trkpt>
      <trkpt lat="43.01468" lon="-0.10076">
        <ele>502.43</ele>
        <time>2014-01-15T15:42:15Z</time>
      </trkpt>
      <trkpt lat="43.01495" lon="-0.10055">
        <ele>504.83</ele>
        <time>2014-01-15T15:42:27Z</time>
      </trkpt>
      <trkpt lat="43.01502" lon="-0.10045">
        <ele>506.27</ele>
        <time>2014-01-15T15:42:31Z</time>
      </trkpt>
      <trkpt lat="43.01523" lon="-0.10027">
        <ele>508.67</ele>
        <time>2014-01-15T15:42:42Z</time>
      </trkpt>
      <trkpt lat="43.01542" lon="-0.10014">
        <ele>511.08</ele>
        <time>2014-01-15T15:42:54Z</time>
      </trkpt>
      <trkpt lat="43.01548" lon="-0.10009">
        <ele>512.04</ele>
        <time>2014-01-15T15:42:58Z</time>
      </trkpt>
      <trkpt lat="43.01556" lon="-0.10006">
        <ele>513.48</ele>
        <time>2014-01-15T15:43:02Z</time>
      </trkpt>
      <trkpt lat="43.01568" lon="-0.09997">
        <ele>514.92</ele>
        <time>2014-01-15T15:43:10Z</time>
      </trkpt>
      <trkpt lat="43.01575" lon="-0.09993">
        <ele>516.37</ele>
        <time>2014-01-15T15:43:14Z</time>
      </trkpt>
      <trkpt lat="43.01585" lon="-0.09992">
        <ele>516.37</ele>
        <time>2014-01-15T15:43:18Z</time>
      </trkpt>
      <trkpt lat="43.016" lon="-0.09991">
        <ele>517.81</ele>
        <time>2014-01-15T15:43:25Z</time>
      </trkpt>
      <trkpt lat="43.01611" lon="-0.09985">
        <ele>518.29</ele>
        <time>2014-01-15T15:43:31Z</time>
      </trkpt>
      <trkpt lat="43.01621" lon="-0.09981">
        <ele>518.77</ele>
        <time>2014-01-15T15:43:36Z</time>
      </trkpt>
      <trkpt lat="43.01638" lon="-0.09978">
        <ele>519.73</ele>
        <time>2014-01-15T15:43:44Z</time>
      </trkpt>
      <trkpt lat="43.01666" lon="-0.09981">
        <ele>523.09</ele>
        <time>2014-01-15T15:43:56Z</time>
      </trkpt>
      <trkpt lat="43.01684" lon="-0.09999">
        <ele>524.06</ele>
        <time>2014-01-15T15:44:05Z</time>
      </trkpt>
      <trkpt lat="43.01686" lon="-0.10002">
        <ele>524.06</ele>
        <time>2014-01-15T15:44:06Z</time>
      </trkpt>
      <trkpt lat="43.01691" lon="-0.10017">
        <ele>525.02</ele>
        <time>2014-01-15T15:44:17Z</time>
      </trkpt>
      <trkpt lat="43.01693" lon="-0.10019">
        <ele>525.5</ele>
        <time>2014-01-15T15:44:36Z</time>
      </trkpt>
      <trkpt lat="43.01695" lon="-0.1002">
        <ele>525.5</ele>
        <time>2014-01-15T15:44:57Z</time>
      </trkpt>
      <trkpt lat="43.01694" lon="-0.10018">
        <ele>525.98</ele>
        <time>2014-01-15T15:45:24Z</time>
      </trkpt>
      <trkpt lat="43.01695" lon="-0.10018">
        <ele>525.5</ele>
        <time>2014-01-15T15:45:58Z</time>
      </trkpt>
      <trkpt lat="43.01696" lon="-0.10019">
        <ele>525.98</ele>
        <time>2014-01-15T15:46:16Z</time>
      </trkpt>
      <trkpt lat="43.01696" lon="-0.10017">
        <ele>525.98</ele>
        <time>2014-01-15T15:46:45Z</time>
      </trkpt>
      <trkpt lat="43.01695" lon="-0.10018">
        <ele>525.98</ele>
        <time>2014-01-15T15:47:10Z</time>
      </trkpt>
      <trkpt lat="43.01695" lon="-0.10021">
        <ele>525.98</ele>
        <time>2014-01-15T15:47:28Z</time>
      </trkpt>
      <trkpt lat="43.01698" lon="-0.1004">
        <ele>522.61</ele>
        <time>2014-01-15T15:47:34Z</time>
      </trkpt>
      <trkpt lat="43.01703" lon="-0.10063">
        <ele>519.25</ele>
        <time>2014-01-15T15:47:38Z</time>
      </trkpt>
      <trkpt lat="43.01715" lon="-0.10071">
        <ele>518.29</ele>
        <time>2014-01-15T15:47:40Z</time>
      </trkpt>
      <trkpt lat="43.01732" lon="-0.10066">
        <ele>517.81</ele>
        <time>2014-01-15T15:47:43Z</time>
      </trkpt>
      <trkpt lat="43.01756" lon="-0.10066">
        <ele>519.73</ele>
        <time>2014-01-15T15:47:49Z</time>
      </trkpt>
      <trkpt lat="43.01778" lon="-0.10069">
        <ele>521.17</ele>
        <time>2014-01-15T15:47:56Z</time>
      </trkpt>
      <trkpt lat="43.01806" lon="-0.1008">
        <ele>521.17</ele>
        <time>2014-01-15T15:48:05Z</time>
      </trkpt>
      <trkpt lat="43.01828" lon="-0.10098">
        <ele>522.13</ele>
        <time>2014-01-15T15:48:13Z</time>
      </trkpt>
      <trkpt lat="43.01832" lon="-0.1011">
        <ele>523.09</ele>
        <time>2014-01-15T15:48:26Z</time>
      </trkpt>
      <trkpt lat="43.01834" lon="-0.10113">
        <ele>527.42</ele>
        <time>2014-01-15T15:48:40Z</time>
      </trkpt>
      <trkpt lat="43.01834" lon="-0.10113">
        <ele>522.61</ele>
        <time>2014-01-15T15:48:41Z</time>
      </trkpt>
      <trkpt lat="43.01835" lon="-0.10115">
        <ele>519.25</ele>
        <time>2014-01-15T15:48:52Z</time>
      </trkpt>
      <trkpt lat="43.01835" lon="-0.10115">
        <ele>523.58</ele>
        <time>2014-01-15T15:48:53Z</time>
      </trkpt>
      <trkpt lat="43.01837" lon="-0.10114">
        <ele>514.92</ele>
        <time>2014-01-15T15:49:07Z</time>
      </trkpt>
      <trkpt lat="43.01837" lon="-0.10114">
        <ele>523.58</ele>
        <time>2014-01-15T15:49:08Z</time>
      </trkpt>
      <trkpt lat="43.01837" lon="-0.10115">
        <ele>529.34</ele>
        <time>2014-01-15T15:49:13Z</time>
      </trkpt>
      <trkpt lat="43.01837" lon="-0.10115">
        <ele>523.09</ele>
        <time>2014-01-15T15:49:14Z</time>
      </trkpt>
      <trkpt lat="43.01837" lon="-0.10114">
        <ele>526.94</ele>
        <time>2014-01-15T15:49:24Z</time>
      </trkpt>
      <trkpt lat="43.01837" lon="-0.10114">
        <ele>524.06</ele>
        <time>2014-01-15T15:49:25Z</time>
      </trkpt>
      <trkpt lat="43.01838" lon="-0.10114">
        <ele>522.61</ele>
        <time>2014-01-15T15:49:28Z</time>
      </trkpt>
      <trkpt lat="43.01838" lon="-0.10114">
        <ele>531.75</ele>
        <time>2014-01-15T15:49:31Z</time>
      </trkpt>
      <trkpt lat="43.01838" lon="-0.10114">
        <ele>523.58</ele>
        <time>2014-01-15T15:49:32Z</time>
      </trkpt>
      <trkpt lat="43.01838" lon="-0.10114">
        <ele>527.9</ele>
        <time>2014-01-15T15:49:34Z</time>
      </trkpt>
      <trkpt lat="43.01838" lon="-0.10114">
        <ele>514.44</ele>
        <time>2014-01-15T15:49:35Z</time>
      </trkpt>
      <trkpt lat="43.01838" lon="-0.10114">
        <ele>523.58</ele>
        <time>2014-01-15T15:49:36Z</time>
      </trkpt>
      <trkpt lat="43.01839" lon="-0.10114">
        <ele>513.48</ele>
        <time>2014-01-15T15:49:42Z</time>
      </trkpt>
      <trkpt lat="43.01839" lon="-0.10114">
        <ele>523.58</ele>
        <time>2014-01-15T15:49:43Z</time>
      </trkpt>
      <trkpt lat="43.01839" lon="-0.10114">
        <ele>519.25</ele>
        <time>2014-01-15T15:49:45Z</time>
      </trkpt>
      <trkpt lat="43.01839" lon="-0.10114">
        <ele>527.42</ele>
        <time>2014-01-15T15:49:46Z</time>
      </trkpt>
      <trkpt lat="43.0184" lon="-0.10114">
        <ele>522.61</ele>
        <time>2014-01-15T15:49:47Z</time>
      </trkpt>
      <trkpt lat="43.0184" lon="-0.10115">
        <ele>519.73</ele>
        <time>2014-01-15T15:49:49Z</time>
      </trkpt>
      <trkpt lat="43.0184" lon="-0.10115">
        <ele>524.54</ele>
        <time>2014-01-15T15:49:50Z</time>
      </trkpt>
      <trkpt lat="43.01841" lon="-0.10115">
        <ele>522.13</ele>
        <time>2014-01-15T15:50:17Z</time>
      </trkpt>
      <trkpt lat="43.01843" lon="-0.10115">
        <ele>522.61</ele>
        <time>2014-01-15T15:50:44Z</time>
      </trkpt>
      <trkpt lat="43.01844" lon="-0.10115">
        <ele>518.77</ele>
        <time>2014-01-15T15:51:00Z</time>
      </trkpt>
      <trkpt lat="43.01844" lon="-0.10115">
        <ele>526.46</ele>
        <time>2014-01-15T15:51:01Z</time>
      </trkpt>
      <trkpt lat="43.01844" lon="-0.10115">
        <ele>522.61</ele>
        <time>2014-01-15T15:51:02Z</time>
      </trkpt>
      <trkpt lat="43.01843" lon="-0.10113">
        <ele>523.09</ele>
        <time>2014-01-15T15:51:26Z</time>
      </trkpt>
      <trkpt lat="43.01843" lon="-0.10114">
        <ele>522.61</ele>
        <time>2014-01-15T15:51:49Z</time>
      </trkpt>
      <trkpt lat="43.01845" lon="-0.10114">
        <ele>523.09</ele>
        <time>2014-01-15T15:52:14Z</time>
      </trkpt>
      <trkpt lat="43.01846" lon="-0.10114">
        <ele>526.94</ele>
        <time>2014-01-15T15:52:27Z</time>
      </trkpt>
      <trkpt lat="43.01846" lon="-0.10114">
        <ele>523.09</ele>
        <time>2014-01-15T15:52:28Z</time>
      </trkpt>
      <trkpt lat="43.01845" lon="-0.10114">
        <ele>523.09</ele>
        <time>2014-01-15T15:52:55Z</time>
      </trkpt>
      <trkpt lat="43.01845" lon="-0.10114">
        <ele>529.82</ele>
        <time>2014-01-15T15:52:59Z</time>
      </trkpt>
      <trkpt lat="43.01845" lon="-0.10114">
        <ele>523.58</ele>
        <time>2014-01-15T15:53:00Z</time>
      </trkpt>
      <trkpt lat="43.01847" lon="-0.10115">
        <ele>523.58</ele>
        <time>2014-01-15T15:53:22Z</time>
      </trkpt>
      <trkpt lat="43.01849" lon="-0.10114">
        <ele>523.58</ele>
        <time>2014-01-15T15:53:25Z</time>
      </trkpt>
      <trkpt lat="43.01864" lon="-0.10112">
        <ele>524.06</ele>
        <time>2014-01-15T15:53:34Z</time>
      </trkpt>
      <trkpt lat="43.01883" lon="-0.10111">
        <ele>522.61</ele>
        <time>2014-01-15T15:53:41Z</time>
      </trkpt>
      <trkpt lat="43.01914" lon="-0.10133">
        <ele>519.73</ele>
        <time>2014-01-15T15:53:51Z</time>
      </trkpt>
      <trkpt lat="43.01929" lon="-0.10147">
        <ele>518.77</ele>
        <time>2014-01-15T15:53:54Z</time>
      </trkpt>
      <trkpt lat="43.01957" lon="-0.10163">
        <ele>516.85</ele>
        <time>2014-01-15T15:53:59Z</time>
      </trkpt>
      <trkpt lat="43.01978" lon="-0.10157">
        <ele>515.4</ele>
        <time>2014-01-15T15:54:05Z</time>
      </trkpt>
      <trkpt lat="43.01998" lon="-0.10153">
        <ele>511.08</ele>
        <time>2014-01-15T15:54:10Z</time>
      </trkpt>
      <trkpt lat="43.02007" lon="-0.10154">
        <ele>510.12</ele>
        <time>2014-01-15T15:54:12Z</time>
      </trkpt>
      <trkpt lat="43.02024" lon="-0.10162">
        <ele>507.23</ele>
        <time>2014-01-15T15:54:17Z</time>
      </trkpt>
      <trkpt lat="43.02032" lon="-0.10165">
        <ele>505.31</ele>
        <time>2014-01-15T15:54:19Z</time>
      </trkpt>
      <trkpt lat="43.02049" lon="-0.10159">
        <ele>501.95</ele>
        <time>2014-01-15T15:54:22Z</time>
      </trkpt>
      <trkpt lat="43.02054" lon="-0.10156">
        <ele>500.98</ele>
        <time>2014-01-15T15:54:23Z</time>
      </trkpt>
      <trkpt lat="43.02082" lon="-0.10158">
        <ele>497.62</ele>
        <time>2014-01-15T15:54:29Z</time>
      </trkpt>
      <trkpt lat="43.02086" lon="-0.10164">
        <ele>497.62</ele>
        <time>2014-01-15T15:54:30Z</time>
      </trkpt>
      <trkpt lat="43.021" lon="-0.10181">
        <ele>496.18</ele>
        <time>2014-01-15T15:54:33Z</time>
      </trkpt>
      <trkpt lat="43.02132" lon="-0.10195">
        <ele>491.37</ele>
        <time>2014-01-15T15:54:38Z</time>
      </trkpt>
      <trkpt lat="43.02139" lon="-0.10194">
        <ele>491.85</ele>
        <time>2014-01-15T15:54:39Z</time>
      </trkpt>
      <trkpt lat="43.02153" lon="-0.10191">
        <ele>495.22</ele>
        <time>2014-01-15T15:54:42Z</time>
      </trkpt>
      <trkpt lat="43.02155" lon="-0.1019">
        <ele>495.22</ele>
        <time>2014-01-15T15:54:43Z</time>
      </trkpt>
      <trkpt lat="43.02171" lon="-0.10189">
        <ele>496.18</ele>
        <time>2014-01-15T15:54:53Z</time>
      </trkpt>
      <trkpt lat="43.02172" lon="-0.10205">
        <ele>498.58</ele>
        <time>2014-01-15T15:55:02Z</time>
      </trkpt>
      <trkpt lat="43.02176" lon="-0.10213">
        <ele>499.54</ele>
        <time>2014-01-15T15:55:09Z</time>
      </trkpt>
      <trkpt lat="43.02204" lon="-0.10225">
        <ele>501.46</ele>
        <time>2014-01-15T15:55:22Z</time>
      </trkpt>
      <trkpt lat="43.02221" lon="-0.10243">
        <ele>501.95</ele>
        <time>2014-01-15T15:55:32Z</time>
      </trkpt>
      <trkpt lat="43.02223" lon="-0.10249">
        <ele>501.95</ele>
        <time>2014-01-15T15:55:34Z</time>
      </trkpt>
      <trkpt lat="43.02239" lon="-0.10268">
        <ele>502.43</ele>
        <time>2014-01-15T15:55:43Z</time>
      </trkpt>
      <trkpt lat="43.02241" lon="-0.10268">
        <ele>501.95</ele>
        <time>2014-01-15T15:55:45Z</time>
      </trkpt>
      <trkpt lat="43.02267" lon="-0.10278">
        <ele>503.39</ele>
        <time>2014-01-15T15:55:57Z</time>
      </trkpt>
      <trkpt lat="43.02275" lon="-0.10279">
        <ele>504.35</ele>
        <time>2014-01-15T15:56:01Z</time>
      </trkpt>
      <trkpt lat="43.02288" lon="-0.10309">
        <ele>507.71</ele>
        <time>2014-01-15T15:56:11Z</time>
      </trkpt>
      <trkpt lat="43.02287" lon="-0.10336">
        <ele>510.12</ele>
        <time>2014-01-15T15:56:19Z</time>
      </trkpt>
      <trkpt lat="43.02288" lon="-0.10353">
        <ele>510.12</ele>
        <time>2014-01-15T15:56:25Z</time>
      </trkpt>
      <trkpt lat="43.02294" lon="-0.10367">
        <ele>510.6</ele>
        <time>2014-01-15T15:56:37Z</time>
      </trkpt>
      <trkpt lat="43.02296" lon="-0.10367">
        <ele>510.6</ele>
        <time>2014-01-15T15:56:51Z</time>
      </trkpt>
      <trkpt lat="43.02296" lon="-0.10367">
        <ele>509.64</ele>
        <time>2014-01-15T15:57:17Z</time>
      </trkpt>
      <trkpt lat="43.02296" lon="-0.10368">
        <ele>510.12</ele>
        <time>2014-01-15T15:57:46Z</time>
      </trkpt>
      <trkpt lat="43.02295" lon="-0.10368">
        <ele>509.64</ele>
        <time>2014-01-15T15:57:51Z</time>
      </trkpt>
      <trkpt lat="43.02281" lon="-0.10392">
        <ele>507.71</ele>
        <time>2014-01-15T15:58:01Z</time>
      </trkpt>
      <trkpt lat="43.0228" lon="-0.10397">
        <ele>507.23</ele>
        <time>2014-01-15T15:58:14Z</time>
      </trkpt>
      <trkpt lat="43.0228" lon="-0.10398">
        <ele>506.75</ele>
        <time>2014-01-15T15:58:31Z</time>
      </trkpt>
      <trkpt lat="43.02278" lon="-0.10398">
        <ele>506.27</ele>
        <time>2014-01-15T15:58:50Z</time>
      </trkpt>
      <trkpt lat="43.02278" lon="-0.10401">
        <ele>506.75</ele>
        <time>2014-01-15T15:59:17Z</time>
      </trkpt>
      <trkpt lat="43.02274" lon="-0.10407">
        <ele>506.27</ele>
        <time>2014-01-15T15:59:21Z</time>
      </trkpt>
      <trkpt lat="43.02269" lon="-0.10418">
        <ele>504.83</ele>
        <time>2014-01-15T15:59:24Z</time>
      </trkpt>
      <trkpt lat="43.02266" lon="-0.10423">
        <ele>504.35</ele>
        <time>2014-01-15T15:59:25Z</time>
      </trkpt>
      <trkpt lat="43.02263" lon="-0.10428">
        <ele>503.87</ele>
        <time>2014-01-15T15:59:26Z</time>
      </trkpt>
      <trkpt lat="43.02245" lon="-0.10477">
        <ele>502.91</ele>
        <time>2014-01-15T15:59:39Z</time>
      </trkpt>
      <trkpt lat="43.02245" lon="-0.10477">
        <ele>502.91</ele>
        <time>2014-01-15T15:59:52Z</time>
      </trkpt>
      <trkpt lat="43.02244" lon="-0.10477">
        <ele>502.91</ele>
        <time>2014-01-15T16:00:12Z</time>
      </trkpt>
      <trkpt lat="43.02244" lon="-0.10478">
        <ele>502.91</ele>
        <time>2014-01-15T16:00:34Z</time>
      </trkpt>
      <trkpt lat="43.02244" lon="-0.10471">
        <ele>502.43</ele>
        <time>2014-01-15T16:00:47Z</time>
      </trkpt>
      <trkpt lat="43.02245" lon="-0.10469">
        <ele>502.43</ele>
        <time>2014-01-15T16:00:48Z</time>
      </trkpt>
      <trkpt lat="43.02246" lon="-0.10466">
        <ele>502.91</ele>
        <time>2014-01-15T16:00:49Z</time>
      </trkpt>
      <trkpt lat="43.02246" lon="-0.10464">
        <ele>502.91</ele>
        <time>2014-01-15T16:00:50Z</time>
      </trkpt>
      <trkpt lat="43.02247" lon="-0.10461">
        <ele>502.91</ele>
        <time>2014-01-15T16:00:51Z</time>
      </trkpt>
      <trkpt lat="43.02264" lon="-0.10422">
        <ele>503.39</ele>
        <time>2014-01-15T16:01:03Z</time>
      </trkpt>
      <trkpt lat="43.02275" lon="-0.10404">
        <ele>505.79</ele>
        <time>2014-01-15T16:01:10Z</time>
      </trkpt>
      <trkpt lat="43.02288" lon="-0.10379">
        <ele>508.19</ele>
        <time>2014-01-15T16:01:20Z</time>
      </trkpt>
      <trkpt lat="43.02291" lon="-0.10374">
        <ele>508.67</ele>
        <time>2014-01-15T16:01:34Z</time>
      </trkpt>
      <trkpt lat="43.02292" lon="-0.10374">
        <ele>508.67</ele>
        <time>2014-01-15T16:01:42Z</time>
      </trkpt>
      <trkpt lat="43.02306" lon="-0.10378">
        <ele>510.6</ele>
        <time>2014-01-15T16:01:50Z</time>
      </trkpt>
      <trkpt lat="43.02338" lon="-0.10372">
        <ele>511.08</ele>
        <time>2014-01-15T16:02:02Z</time>
      </trkpt>
      <trkpt lat="43.02372" lon="-0.10359">
        <ele>511.08</ele>
        <time>2014-01-15T16:02:12Z</time>
      </trkpt>
      <trkpt lat="43.02379" lon="-0.10356">
        <ele>511.08</ele>
        <time>2014-01-15T16:02:14Z</time>
      </trkpt>
      <trkpt lat="43.02383" lon="-0.10354">
        <ele>510.12</ele>
        <time>2014-01-15T16:02:15Z</time>
      </trkpt>
      <trkpt lat="43.02415" lon="-0.10346">
        <ele>507.71</ele>
        <time>2014-01-15T16:02:21Z</time>
      </trkpt>
      <trkpt lat="43.0242" lon="-0.10344">
        <ele>507.71</ele>
        <time>2014-01-15T16:02:22Z</time>
      </trkpt>
      <trkpt lat="43.02432" lon="-0.10336">
        <ele>506.75</ele>
        <time>2014-01-15T16:02:25Z</time>
      </trkpt>
      <trkpt lat="43.02434" lon="-0.10331">
        <ele>506.27</ele>
        <time>2014-01-15T16:02:26Z</time>
      </trkpt>
      <trkpt lat="43.02436" lon="-0.10327">
        <ele>506.27</ele>
        <time>2014-01-15T16:02:27Z</time>
      </trkpt>
      <trkpt lat="43.02438" lon="-0.10323">
        <ele>505.79</ele>
        <time>2014-01-15T16:02:28Z</time>
      </trkpt>
      <trkpt lat="43.0244" lon="-0.1032">
        <ele>505.31</ele>
        <time>2014-01-15T16:02:29Z</time>
      </trkpt>
      <trkpt lat="43.02443" lon="-0.10318">
        <ele>505.79</ele>
        <time>2014-01-15T16:02:30Z</time>
      </trkpt>
      <trkpt lat="43.02445" lon="-0.10316">
        <ele>506.27</ele>
        <time>2014-01-15T16:02:31Z</time>
      </trkpt>
      <trkpt lat="43.02448" lon="-0.10314">
        <ele>507.23</ele>
        <time>2014-01-15T16:02:33Z</time>
      </trkpt>
      <trkpt lat="43.02449" lon="-0.10314">
        <ele>507.23</ele>
        <time>2014-01-15T16:02:34Z</time>
      </trkpt>
      <trkpt lat="43.02461" lon="-0.10305">
        <ele>507.71</ele>
        <time>2014-01-15T16:02:41Z</time>
      </trkpt>
      <trkpt lat="43.02463" lon="-0.10303">
        <ele>507.71</ele>
        <time>2014-01-15T16:02:42Z</time>
      </trkpt>
      <trkpt lat="43.02466" lon="-0.10302">
        <ele>507.23</ele>
        <time>2014-01-15T16:02:43Z</time>
      </trkpt>
      <trkpt lat="43.02468" lon="-0.10301">
        <ele>507.71</ele>
        <time>2014-01-15T16:02:44Z</time>
      </trkpt>
      <trkpt lat="43.02471" lon="-0.103">
        <ele>507.71</ele>
        <time>2014-01-15T16:02:45Z</time>
      </trkpt>
      <trkpt lat="43.02493" lon="-0.10293">
        <ele>506.27</ele>
        <time>2014-01-15T16:02:51Z</time>
      </trkpt>
      <trkpt lat="43.02511" lon="-0.103">
        <ele>506.27</ele>
        <time>2014-01-15T16:02:58Z</time>
      </trkpt>
      <trkpt lat="43.02517" lon="-0.103">
        <ele>506.27</ele>
        <time>2014-01-15T16:03:04Z</time>
      </trkpt>
      <trkpt lat="43.02526" lon="-0.10294">
        <ele>506.27</ele>
        <time>2014-01-15T16:03:08Z</time>
      </trkpt>
      <trkpt lat="43.02543" lon="-0.10282">
        <ele>508.19</ele>
        <time>2014-01-15T16:03:17Z</time>
      </trkpt>
      <trkpt lat="43.02546" lon="-0.10279">
        <ele>509.16</ele>
        <time>2014-01-15T16:03:19Z</time>
      </trkpt>
      <trkpt lat="43.02565" lon="-0.10257">
        <ele>509.16</ele>
        <time>2014-01-15T16:03:28Z</time>
      </trkpt>
      <trkpt lat="43.0258" lon="-0.10253">
        <ele>509.16</ele>
        <time>2014-01-15T16:03:33Z</time>
      </trkpt>
      <trkpt lat="43.02597" lon="-0.10239">
        <ele>503.87</ele>
        <time>2014-01-15T16:03:38Z</time>
      </trkpt>
      <trkpt lat="43.02612" lon="-0.10223">
        <ele>500.5</ele>
        <time>2014-01-15T16:03:42Z</time>
      </trkpt>
      <trkpt lat="43.02626" lon="-0.10211">
        <ele>501.95</ele>
        <time>2014-01-15T16:03:46Z</time>
      </trkpt>
      <trkpt lat="43.0264" lon="-0.10188">
        <ele>504.35</ele>
        <time>2014-01-15T16:03:54Z</time>
      </trkpt>
      <trkpt lat="43.02649" lon="-0.10166">
        <ele>500.02</ele>
        <time>2014-01-15T16:03:58Z</time>
      </trkpt>
      <trkpt lat="43.02652" lon="-0.10158">
        <ele>500.02</ele>
        <time>2014-01-15T16:03:59Z</time>
      </trkpt>
      <trkpt lat="43.02658" lon="-0.10145">
        <ele>500.98</ele>
        <time>2014-01-15T16:04:01Z</time>
      </trkpt>
      <trkpt lat="43.02663" lon="-0.10136">
        <ele>501.95</ele>
        <time>2014-01-15T16:04:03Z</time>
      </trkpt>
      <trkpt lat="43.02666" lon="-0.1012">
        <ele>500.5</ele>
        <time>2014-01-15T16:04:06Z</time>
      </trkpt>
      <trkpt lat="43.02674" lon="-0.101">
        <ele>498.1</ele>
        <time>2014-01-15T16:04:09Z</time>
      </trkpt>
      <trkpt lat="43.02682" lon="-0.10058">
        <ele>500.02</ele>
        <time>2014-01-15T16:04:17Z</time>
      </trkpt>
      <trkpt lat="43.02683" lon="-0.1004">
        <ele>502.43</ele>
        <time>2014-01-15T16:04:28Z</time>
      </trkpt>
      <trkpt lat="43.02684" lon="-0.10035">
        <ele>501.95</ele>
        <time>2014-01-15T16:04:55Z</time>
      </trkpt>
      <trkpt lat="43.02683" lon="-0.10016">
        <ele>498.58</ele>
        <time>2014-01-15T16:04:59Z</time>
      </trkpt>
      <trkpt lat="43.02684" lon="-0.09995">
        <ele>494.74</ele>
        <time>2014-01-15T16:05:01Z</time>
      </trkpt>
      <trkpt lat="43.02684" lon="-0.09985">
        <ele>493.77</ele>
        <time>2014-01-15T16:05:02Z</time>
      </trkpt>
      <trkpt lat="43.02683" lon="-0.09977">
        <ele>493.77</ele>
        <time>2014-01-15T16:05:03Z</time>
      </trkpt>
      <trkpt lat="43.02678" lon="-0.09965">
        <ele>493.77</ele>
        <time>2014-01-15T16:05:09Z</time>
      </trkpt>
      <trkpt lat="43.02666" lon="-0.0994">
        <ele>490.41</ele>
        <time>2014-01-15T16:05:14Z</time>
      </trkpt>
      <trkpt lat="43.02666" lon="-0.09932">
        <ele>489.45</ele>
        <time>2014-01-15T16:05:15Z</time>
      </trkpt>
      <trkpt lat="43.02668" lon="-0.09925">
        <ele>488.49</ele>
        <time>2014-01-15T16:05:16Z</time>
      </trkpt>
      <trkpt lat="43.02671" lon="-0.09919">
        <ele>487.53</ele>
        <time>2014-01-15T16:05:17Z</time>
      </trkpt>
      <trkpt lat="43.02675" lon="-0.09914">
        <ele>485.6</ele>
        <time>2014-01-15T16:05:18Z</time>
      </trkpt>
      <trkpt lat="43.0268" lon="-0.0991">
        <ele>485.6</ele>
        <time>2014-01-15T16:05:19Z</time>
      </trkpt>
      <trkpt lat="43.02687" lon="-0.09902">
        <ele>485.12</ele>
        <time>2014-01-15T16:05:21Z</time>
      </trkpt>
      <trkpt lat="43.02687" lon="-0.09897">
        <ele>484.16</ele>
        <time>2014-01-15T16:05:22Z</time>
      </trkpt>
      <trkpt lat="43.02688" lon="-0.09892">
        <ele>484.16</ele>
        <time>2014-01-15T16:05:23Z</time>
      </trkpt>
      <trkpt lat="43.0269" lon="-0.09887">
        <ele>484.16</ele>
        <time>2014-01-15T16:05:24Z</time>
      </trkpt>
      <trkpt lat="43.02678" lon="-0.0986">
        <ele>483.2</ele>
        <time>2014-01-15T16:05:30Z</time>
      </trkpt>
      <trkpt lat="43.02674" lon="-0.09858">
        <ele>483.68</ele>
        <time>2014-01-15T16:05:31Z</time>
      </trkpt>
      <trkpt lat="43.02671" lon="-0.09856">
        <ele>483.2</ele>
        <time>2014-01-15T16:05:32Z</time>
      </trkpt>
      <trkpt lat="43.02668" lon="-0.09853">
        <ele>482.24</ele>
        <time>2014-01-15T16:05:33Z</time>
      </trkpt>
      <trkpt lat="43.02663" lon="-0.0985">
        <ele>481.28</ele>
        <time>2014-01-15T16:05:34Z</time>
      </trkpt>
      <trkpt lat="43.02658" lon="-0.09848">
        <ele>481.28</ele>
        <time>2014-01-15T16:05:35Z</time>
      </trkpt>
      <trkpt lat="43.02652" lon="-0.09847">
        <ele>479.84</ele>
        <time>2014-01-15T16:05:36Z</time>
      </trkpt>
      <trkpt lat="43.02646" lon="-0.09849">
        <ele>479.35</ele>
        <time>2014-01-15T16:05:37Z</time>
      </trkpt>
      <trkpt lat="43.02639" lon="-0.09851">
        <ele>478.39</ele>
        <time>2014-01-15T16:05:38Z</time>
      </trkpt>
      <trkpt lat="43.02633" lon="-0.09854">
        <ele>478.39</ele>
        <time>2014-01-15T16:05:39Z</time>
      </trkpt>
      <trkpt lat="43.02628" lon="-0.09855">
        <ele>477.91</ele>
        <time>2014-01-15T16:05:40Z</time>
      </trkpt>
      <trkpt lat="43.02605" lon="-0.09868">
        <ele>477.91</ele>
        <time>2014-01-15T16:05:46Z</time>
      </trkpt>
      <trkpt lat="43.02603" lon="-0.09867">
        <ele>477.91</ele>
        <time>2014-01-15T16:05:47Z</time>
      </trkpt>
      <trkpt lat="43.02601" lon="-0.09867">
        <ele>476.95</ele>
        <time>2014-01-15T16:05:48Z</time>
      </trkpt>
      <trkpt lat="43.026" lon="-0.09867">
        <ele>476.95</ele>
        <time>2014-01-15T16:05:49Z</time>
      </trkpt>
      <trkpt lat="43.02598" lon="-0.09867">
        <ele>477.43</ele>
        <time>2014-01-15T16:05:50Z</time>
      </trkpt>
      <trkpt lat="43.02598" lon="-0.09858">
        <ele>475.99</ele>
        <time>2014-01-15T16:05:53Z</time>
      </trkpt>
      <trkpt lat="43.02601" lon="-0.09854">
        <ele>475.51</ele>
        <time>2014-01-15T16:05:54Z</time>
      </trkpt>
      <trkpt lat="43.02604" lon="-0.0985">
        <ele>475.51</ele>
        <time>2014-01-15T16:05:55Z</time>
      </trkpt>
      <trkpt lat="43.02606" lon="-0.09844">
        <ele>475.03</ele>
        <time>2014-01-15T16:05:56Z</time>
      </trkpt>
      <trkpt lat="43.02607" lon="-0.09838">
        <ele>474.55</ele>
        <time>2014-01-15T16:05:57Z</time>
      </trkpt>
      <trkpt lat="43.02607" lon="-0.09833">
        <ele>473.11</ele>
        <time>2014-01-15T16:05:58Z</time>
      </trkpt>
      <trkpt lat="43.02606" lon="-0.09828">
        <ele>472.14</ele>
        <time>2014-01-15T16:05:59Z</time>
      </trkpt>
      <trkpt lat="43.02607" lon="-0.0981">
        <ele>467.82</ele>
        <time>2014-01-15T16:06:02Z</time>
      </trkpt>
      <trkpt lat="43.0261" lon="-0.09805">
        <ele>466.86</ele>
        <time>2014-01-15T16:06:03Z</time>
      </trkpt>
      <trkpt lat="43.02613" lon="-0.09799">
        <ele>465.42</ele>
        <time>2014-01-15T16:06:04Z</time>
      </trkpt>
      <trkpt lat="43.02619" lon="-0.09786">
        <ele>462.53</ele>
        <time>2014-01-15T16:06:06Z</time>
      </trkpt>
      <trkpt lat="43.02623" lon="-0.09779">
        <ele>462.05</ele>
        <time>2014-01-15T16:06:07Z</time>
      </trkpt>
      <trkpt lat="43.02625" lon="-0.09771">
        <ele>460.61</ele>
        <time>2014-01-15T16:06:08Z</time>
      </trkpt>
      <trkpt lat="43.02627" lon="-0.09763">
        <ele>459.17</ele>
        <time>2014-01-15T16:06:09Z</time>
      </trkpt>
      <trkpt lat="43.02628" lon="-0.09754">
        <ele>457.24</ele>
        <time>2014-01-15T16:06:10Z</time>
      </trkpt>
      <trkpt lat="43.02629" lon="-0.0974">
        <ele>454.84</ele>
        <time>2014-01-15T16:06:12Z</time>
      </trkpt>
      <trkpt lat="43.02629" lon="-0.09734">
        <ele>454.36</ele>
        <time>2014-01-15T16:06:13Z</time>
      </trkpt>
      <trkpt lat="43.02628" lon="-0.09728">
        <ele>452.92</ele>
        <time>2014-01-15T16:06:14Z</time>
      </trkpt>
      <trkpt lat="43.02629" lon="-0.0972">
        <ele>451.48</ele>
        <time>2014-01-15T16:06:15Z</time>
      </trkpt>
      <trkpt lat="43.02631" lon="-0.09712">
        <ele>450.52</ele>
        <time>2014-01-15T16:06:16Z</time>
      </trkpt>
      <trkpt lat="43.02633" lon="-0.09704">
        <ele>450.03</ele>
        <time>2014-01-15T16:06:17Z</time>
      </trkpt>
      <trkpt lat="43.02636" lon="-0.09697">
        <ele>447.63</ele>
        <time>2014-01-15T16:06:18Z</time>
      </trkpt>
      <trkpt lat="43.02637" lon="-0.09689">
        <ele>446.67</ele>
        <time>2014-01-15T16:06:19Z</time>
      </trkpt>
      <trkpt lat="43.02641" lon="-0.09673">
        <ele>443.79</ele>
        <time>2014-01-15T16:06:21Z</time>
      </trkpt>
      <trkpt lat="43.0265" lon="-0.09656">
        <ele>439.94</ele>
        <time>2014-01-15T16:06:23Z</time>
      </trkpt>
      <trkpt lat="43.02656" lon="-0.09647">
        <ele>438.5</ele>
        <time>2014-01-15T16:06:24Z</time>
      </trkpt>
      <trkpt lat="43.02669" lon="-0.09632">
        <ele>436.1</ele>
        <time>2014-01-15T16:06:26Z</time>
      </trkpt>
      <trkpt lat="43.02691" lon="-0.09612">
        <ele>434.65</ele>
        <time>2014-01-15T16:06:29Z</time>
      </trkpt>
      <trkpt lat="43.02703" lon="-0.09599">
        <ele>433.21</ele>
        <time>2014-01-15T16:06:31Z</time>
      </trkpt>
      <trkpt lat="43.02706" lon="-0.09592">
        <ele>432.73</ele>
        <time>2014-01-15T16:06:32Z</time>
      </trkpt>
      <trkpt lat="43.02707" lon="-0.09584">
        <ele>431.29</ele>
        <time>2014-01-15T16:06:33Z</time>
      </trkpt>
      <trkpt lat="43.02707" lon="-0.09576">
        <ele>430.81</ele>
        <time>2014-01-15T16:06:34Z</time>
      </trkpt>
      <trkpt lat="43.02703" lon="-0.09566">
        <ele>429.85</ele>
        <time>2014-01-15T16:06:36Z</time>
      </trkpt>
      <trkpt lat="43.02695" lon="-0.09564">
        <ele>429.85</ele>
        <time>2014-01-15T16:06:39Z</time>
      </trkpt>
      <trkpt lat="43.02669" lon="-0.09579">
        <ele>429.85</ele>
        <time>2014-01-15T16:06:52Z</time>
      </trkpt>
      <trkpt lat="43.02665" lon="-0.09583">
        <ele>429.85</ele>
        <time>2014-01-15T16:06:54Z</time>
      </trkpt>
      <trkpt lat="43.02649" lon="-0.09595">
        <ele>429.85</ele>
        <time>2014-01-15T16:07:01Z</time>
      </trkpt>
      <trkpt lat="43.02621" lon="-0.0961">
        <ele>427.92</ele>
        <time>2014-01-15T16:07:11Z</time>
      </trkpt>
      <trkpt lat="43.02611" lon="-0.0961">
        <ele>426</ele>
        <time>2014-01-15T16:07:13Z</time>
      </trkpt>
      <trkpt lat="43.02607" lon="-0.09577">
        <ele>424.08</ele>
        <time>2014-01-15T16:07:19Z</time>
      </trkpt>
      <trkpt lat="43.0262" lon="-0.0954">
        <ele>423.6</ele>
        <time>2014-01-15T16:07:25Z</time>
      </trkpt>
      <trkpt lat="43.02622" lon="-0.09524">
        <ele>423.6</ele>
        <time>2014-01-15T16:07:32Z</time>
      </trkpt>
      <trkpt lat="43.02622" lon="-0.09525">
        <ele>423.6</ele>
        <time>2014-01-15T16:07:33Z</time>
      </trkpt>
      <trkpt lat="43.02622" lon="-0.0953">
        <ele>423.6</ele>
        <time>2014-01-15T16:07:43Z</time>
      </trkpt>
      <trkpt lat="43.02622" lon="-0.09529">
        <ele>423.12</ele>
        <time>2014-01-15T16:08:01Z</time>
      </trkpt>
      <trkpt lat="43.02623" lon="-0.09531">
        <ele>423.12</ele>
        <time>2014-01-15T16:08:23Z</time>
      </trkpt>
      <trkpt lat="43.02624" lon="-0.0953">
        <ele>423.12</ele>
        <time>2014-01-15T16:08:33Z</time>
      </trkpt>
      <trkpt lat="43.02623" lon="-0.0953">
        <ele>415.91</ele>
        <time>2014-01-15T16:08:41Z</time>
      </trkpt>
      <trkpt lat="43.02623" lon="-0.0953">
        <ele>425.04</ele>
        <time>2014-01-15T16:08:42Z</time>
      </trkpt>
      <trkpt lat="43.02623" lon="-0.09529">
        <ele>416.87</ele>
        <time>2014-01-15T16:08:43Z</time>
      </trkpt>
      <trkpt lat="43.02623" lon="-0.09529">
        <ele>425.52</ele>
        <time>2014-01-15T16:08:44Z</time>
      </trkpt>
      <trkpt lat="43.02623" lon="-0.09529">
        <ele>419.27</ele>
        <time>2014-01-15T16:08:45Z</time>
      </trkpt>
      <trkpt lat="43.02623" lon="-0.09529">
        <ele>425.52</ele>
        <time>2014-01-15T16:08:46Z</time>
      </trkpt>
      <trkpt lat="43.02621" lon="-0.09529">
        <ele>423.12</ele>
        <time>2014-01-15T16:09:02Z</time>
      </trkpt>
      <trkpt lat="43.02622" lon="-0.0953">
        <ele>423.12</ele>
        <time>2014-01-15T16:09:40Z</time>
      </trkpt>
      <trkpt lat="43.02623" lon="-0.0953">
        <ele>423.12</ele>
        <time>2014-01-15T16:10:11Z</time>
      </trkpt>
      <trkpt lat="43.02623" lon="-0.0953">
        <ele>423.12</ele>
        <time>2014-01-15T16:10:48Z</time>
      </trkpt>
      <trkpt lat="43.02622" lon="-0.09531">
        <ele>423.12</ele>
        <time>2014-01-15T16:11:24Z</time>
      </trkpt>
      <trkpt lat="43.02621" lon="-0.0953">
        <ele>423.12</ele>
        <time>2014-01-15T16:11:38Z</time>
      </trkpt>
      <trkpt lat="43.02619" lon="-0.09531">
        <ele>423.6</ele>
        <time>2014-01-15T16:12:09Z</time>
      </trkpt>
      <trkpt lat="43.02617" lon="-0.09532">
        <ele>424.08</ele>
        <time>2014-01-15T16:12:38Z</time>
      </trkpt>
      <trkpt lat="43.02609" lon="-0.09537">
        <ele>424.08</ele>
        <time>2014-01-15T16:12:45Z</time>
      </trkpt>
      <trkpt lat="43.02593" lon="-0.09532">
        <ele>423.12</ele>
        <time>2014-01-15T16:12:51Z</time>
      </trkpt>
      <trkpt lat="43.02539" lon="-0.09475">
        <ele>420.71</ele>
        <time>2014-01-15T16:13:07Z</time>
      </trkpt>
      <trkpt lat="43.02513" lon="-0.0948">
        <ele>419.27</ele>
        <time>2014-01-15T16:13:13Z</time>
      </trkpt>
      <trkpt lat="43.02499" lon="-0.09494">
        <ele>419.27</ele>
        <time>2014-01-15T16:13:17Z</time>
      </trkpt>
      <trkpt lat="43.0248" lon="-0.09503">
        <ele>419.75</ele>
        <time>2014-01-15T16:13:22Z</time>
      </trkpt>
      <trkpt lat="43.02458" lon="-0.09531">
        <ele>419.75</ele>
        <time>2014-01-15T16:13:31Z</time>
      </trkpt>
      <trkpt lat="43.02429" lon="-0.0957">
        <ele>419.27</ele>
        <time>2014-01-15T16:13:40Z</time>
      </trkpt>
      <trkpt lat="43.02403" lon="-0.09606">
        <ele>419.75</ele>
        <time>2014-01-15T16:13:48Z</time>
      </trkpt>
      <trkpt lat="43.02384" lon="-0.09633">
        <ele>421.19</ele>
        <time>2014-01-15T16:13:54Z</time>
      </trkpt>
      <trkpt lat="43.02369" lon="-0.09644">
        <ele>421.68</ele>
        <time>2014-01-15T16:13:58Z</time>
      </trkpt>
      <trkpt lat="43.02352" lon="-0.09652">
        <ele>421.68</ele>
        <time>2014-01-15T16:14:02Z</time>
      </trkpt>
      <trkpt lat="43.02337" lon="-0.09659">
        <ele>422.16</ele>
        <time>2014-01-15T16:14:05Z</time>
      </trkpt>
      <trkpt lat="43.02312" lon="-0.09667">
        <ele>420.71</ele>
        <time>2014-01-15T16:14:10Z</time>
      </trkpt>
      <trkpt lat="43.02304" lon="-0.09693">
        <ele>423.6</ele>
        <time>2014-01-15T16:14:16Z</time>
      </trkpt>
      <trkpt lat="43.02302" lon="-0.09705">
        <ele>425.04</ele>
        <time>2014-01-15T16:14:20Z</time>
      </trkpt>
      <trkpt lat="43.02288" lon="-0.09742">
        <ele>426.48</ele>
        <time>2014-01-15T16:14:33Z</time>
      </trkpt>
      <trkpt lat="43.02273" lon="-0.0979">
        <ele>428.89</ele>
        <time>2014-01-15T16:14:47Z</time>
      </trkpt>
      <trkpt lat="43.02262" lon="-0.09823">
        <ele>431.77</ele>
        <time>2014-01-15T16:14:59Z</time>
      </trkpt>
      <trkpt lat="43.0226" lon="-0.09842">
        <ele>433.21</ele>
        <time>2014-01-15T16:15:06Z</time>
      </trkpt>
      <trkpt lat="43.02268" lon="-0.09847">
        <ele>435.13</ele>
        <time>2014-01-15T16:15:11Z</time>
      </trkpt>
      <trkpt lat="43.02276" lon="-0.0985">
        <ele>437.54</ele>
        <time>2014-01-15T16:15:17Z</time>
      </trkpt>
      <trkpt lat="43.02282" lon="-0.09859">
        <ele>438.98</ele>
        <time>2014-01-15T16:15:22Z</time>
      </trkpt>
      <trkpt lat="43.02285" lon="-0.09867">
        <ele>440.42</ele>
        <time>2014-01-15T16:15:27Z</time>
      </trkpt>
      <trkpt lat="43.02287" lon="-0.09873">
        <ele>441.38</ele>
        <time>2014-01-15T16:15:31Z</time>
      </trkpt>
      <trkpt lat="43.02288" lon="-0.09876">
        <ele>442.34</ele>
        <time>2014-01-15T16:15:33Z</time>
      </trkpt>
      <trkpt lat="43.02287" lon="-0.09883">
        <ele>443.31</ele>
        <time>2014-01-15T16:15:37Z</time>
      </trkpt>
      <trkpt lat="43.02287" lon="-0.09897">
        <ele>446.19</ele>
        <time>2014-01-15T16:15:44Z</time>
      </trkpt>
      <trkpt lat="43.02287" lon="-0.09909">
        <ele>448.11</ele>
        <time>2014-01-15T16:15:50Z</time>
      </trkpt>
      <trkpt lat="43.02286" lon="-0.09922">
        <ele>450.03</ele>
        <time>2014-01-15T16:15:56Z</time>
      </trkpt>
      <trkpt lat="43.02286" lon="-0.09931">
        <ele>451.48</ele>
        <time>2014-01-15T16:16:02Z</time>
      </trkpt>
      <trkpt lat="43.02283" lon="-0.0996">
        <ele>454.84</ele>
        <time>2014-01-15T16:16:15Z</time>
      </trkpt>
      <trkpt lat="43.02282" lon="-0.09964">
        <ele>455.32</ele>
        <time>2014-01-15T16:16:16Z</time>
      </trkpt>
      <trkpt lat="43.02282" lon="-0.09984">
        <ele>458.21</ele>
        <time>2014-01-15T16:16:26Z</time>
      </trkpt>
      <trkpt lat="43.02274" lon="-0.09992">
        <ele>459.17</ele>
        <time>2014-01-15T16:16:31Z</time>
      </trkpt>
      <trkpt lat="43.02271" lon="-0.09995">
        <ele>460.13</ele>
        <time>2014-01-15T16:16:33Z</time>
      </trkpt>
      <trkpt lat="43.02259" lon="-0.10007">
        <ele>462.05</ele>
        <time>2014-01-15T16:16:43Z</time>
      </trkpt>
      <trkpt lat="43.02258" lon="-0.10008">
        <ele>462.53</ele>
        <time>2014-01-15T16:16:44Z</time>
      </trkpt>
      <trkpt lat="43.02244" lon="-0.10028">
        <ele>464.93</ele>
        <time>2014-01-15T16:16:54Z</time>
      </trkpt>
      <trkpt lat="43.02217" lon="-0.10029">
        <ele>467.34</ele>
        <time>2014-01-15T16:17:07Z</time>
      </trkpt>
      <trkpt lat="43.022" lon="-0.10022">
        <ele>468.78</ele>
        <time>2014-01-15T16:17:15Z</time>
      </trkpt>
      <trkpt lat="43.02185" lon="-0.10023">
        <ele>469.74</ele>
        <time>2014-01-15T16:17:21Z</time>
      </trkpt>
      <trkpt lat="43.0215" lon="-0.10026">
        <ele>472.14</ele>
        <time>2014-01-15T16:17:35Z</time>
      </trkpt>
      <trkpt lat="43.02136" lon="-0.10027">
        <ele>472.63</ele>
        <time>2014-01-15T16:17:41Z</time>
      </trkpt>
      <trkpt lat="43.02101" lon="-0.10009">
        <ele>472.63</ele>
        <time>2014-01-15T16:17:54Z</time>
      </trkpt>
      <trkpt lat="43.02072" lon="-0.09986">
        <ele>473.11</ele>
        <time>2014-01-15T16:18:04Z</time>
      </trkpt>
      <trkpt lat="43.02067" lon="-0.09984">
        <ele>472.14</ele>
        <time>2014-01-15T16:18:05Z</time>
      </trkpt>
      <trkpt lat="43.02049" lon="-0.09983">
        <ele>469.26</ele>
        <time>2014-01-15T16:18:08Z</time>
      </trkpt>
      <trkpt lat="43.0202" lon="-0.09971">
        <ele>463.97</ele>
        <time>2014-01-15T16:18:12Z</time>
      </trkpt>
      <trkpt lat="43.02002" lon="-0.09948">
        <ele>460.61</ele>
        <time>2014-01-15T16:18:15Z</time>
      </trkpt>
      <trkpt lat="43.01993" lon="-0.09919">
        <ele>459.17</ele>
        <time>2014-01-15T16:18:18Z</time>
      </trkpt>
      <trkpt lat="43.01976" lon="-0.09889">
        <ele>456.28</ele>
        <time>2014-01-15T16:18:24Z</time>
      </trkpt>
      <trkpt lat="43.01958" lon="-0.09886">
        <ele>452.92</ele>
        <time>2014-01-15T16:18:28Z</time>
      </trkpt>
      <trkpt lat="43.01944" lon="-0.09858">
        <ele>448.59</ele>
        <time>2014-01-15T16:18:33Z</time>
      </trkpt>
      <trkpt lat="43.0195" lon="-0.0982">
        <ele>446.19</ele>
        <time>2014-01-15T16:18:37Z</time>
      </trkpt>
      <trkpt lat="43.0197" lon="-0.09787">
        <ele>441.86</ele>
        <time>2014-01-15T16:18:43Z</time>
      </trkpt>
      <trkpt lat="43.0199" lon="-0.09773">
        <ele>438.02</ele>
        <time>2014-01-15T16:18:46Z</time>
      </trkpt>
      <trkpt lat="43.0201" lon="-0.09764">
        <ele>435.13</ele>
        <time>2014-01-15T16:18:49Z</time>
      </trkpt>
      <trkpt lat="43.02023" lon="-0.0975">
        <ele>432.25</ele>
        <time>2014-01-15T16:18:52Z</time>
      </trkpt>
      <trkpt lat="43.02021" lon="-0.0974">
        <ele>431.29</ele>
        <time>2014-01-15T16:18:54Z</time>
      </trkpt>
      <trkpt lat="43.02012" lon="-0.09734">
        <ele>430.33</ele>
        <time>2014-01-15T16:18:56Z</time>
      </trkpt>
      <trkpt lat="43.01977" lon="-0.09707">
        <ele>425.52</ele>
        <time>2014-01-15T16:19:02Z</time>
      </trkpt>
      <trkpt lat="43.01969" lon="-0.09705">
        <ele>424.56</ele>
        <time>2014-01-15T16:19:03Z</time>
      </trkpt>
      <trkpt lat="43.01929" lon="-0.09703">
        <ele>419.27</ele>
        <time>2014-01-15T16:19:08Z</time>
      </trkpt>
      <trkpt lat="43.01921" lon="-0.09693">
        <ele>417.83</ele>
        <time>2014-01-15T16:19:10Z</time>
      </trkpt>
      <trkpt lat="43.01919" lon="-0.09684">
        <ele>416.39</ele>
        <time>2014-01-15T16:19:12Z</time>
      </trkpt>
      <trkpt lat="43.01919" lon="-0.0968">
        <ele>415.91</ele>
        <time>2014-01-15T16:19:14Z</time>
      </trkpt>
      <trkpt lat="43.01926" lon="-0.09665">
        <ele>415.91</ele>
        <time>2014-01-15T16:19:21Z</time>
      </trkpt>
      <trkpt lat="43.01929" lon="-0.09656">
        <ele>415.43</ele>
        <time>2014-01-15T16:19:23Z</time>
      </trkpt>
      <trkpt lat="43.01931" lon="-0.09643">
        <ele>414.95</ele>
        <time>2014-01-15T16:19:25Z</time>
      </trkpt>
      <trkpt lat="43.01948" lon="-0.0959">
        <ele>412.54</ele>
        <time>2014-01-15T16:19:33Z</time>
      </trkpt>
      <trkpt lat="43.01946" lon="-0.09577">
        <ele>413.02</ele>
        <time>2014-01-15T16:19:41Z</time>
      </trkpt>
      <trkpt lat="43.01947" lon="-0.09578">
        <ele>412.54</ele>
        <time>2014-01-15T16:19:53Z</time>
      </trkpt>
      <trkpt lat="43.01946" lon="-0.09578">
        <ele>413.02</ele>
        <time>2014-01-15T16:20:06Z</time>
      </trkpt>
      <trkpt lat="43.01946" lon="-0.09578">
        <ele>413.02</ele>
        <time>2014-01-15T16:20:30Z</time>
      </trkpt>
      <trkpt lat="43.01946" lon="-0.09578">
        <ele>408.22</ele>
        <time>2014-01-15T16:20:36Z</time>
      </trkpt>
      <trkpt lat="43.01946" lon="-0.09578">
        <ele>413.5</ele>
        <time>2014-01-15T16:20:37Z</time>
      </trkpt>
      <trkpt lat="43.01946" lon="-0.09578">
        <ele>411.1</ele>
        <time>2014-01-15T16:21:02Z</time>
      </trkpt>
      <trkpt lat="43.01946" lon="-0.09578">
        <ele>414.47</ele>
        <time>2014-01-15T16:21:05Z</time>
      </trkpt>
      <trkpt lat="43.01946" lon="-0.09577">
        <ele>413.02</ele>
        <time>2014-01-15T16:21:19Z</time>
      </trkpt>
    </trkseg>
  </trk>
</gpx>